sensor_id;sensor_type;location;lat;lon;timestamp;temperature;humidity
16625;DHT22;8426;48.496;9.098;2024-01-06T00:00:01;4.90;99.90
16625;DHT22;8426;48.496;9.098;2024-01-06T00:05:21;4.90;99.90
16625;DHT22;8426;48.496;9.098;2024-01-06T00:10:29;4.80;99.90
16625;DHT22;8426;48.496;9.098;2024-01-06T00:15:38;4.80;99.90
16625;DHT22;8426;48.496;9.098;2024-01-06T00:20:48;4.70;99.90
16625;DHT22;8426;48.496;9.098;2024-01-06T00:25:59;4.70;99.90
16625;DHT22;8426;48.496;9.098;2024-01-06T00:31:13;4.70;99.90
16625;DHT22;8426;48.496;9.098;2024-01-06T00:36:27;4.90;99.90
16625;DHT22;8426;48.496;9.098;2024-01-06T00:41:47;4.80;99.90
16625;DHT22;8426;48.496;9.098;2024-01-06T00:47:02;4.70;99.90
16625;DHT22;8426;48.496;9.098;2024-01-06T00:52:14;4.70;99.90
16625;DHT22;8426;48.496;9.098;2024-01-06T00:57:23;4.70;99.90
16625;DHT22;8426;48.496;9.098;2024-01-06T01:02:32;4.60;99.90
16625;DHT22;8426;48.496;9.098;2024-01-06T01:07:40;4.60;99.90
16625;DHT22;8426;48.496;9.098;2024-01-06T01:12:48;4.50;99.90
16625;DHT22;8426;48.496;9.098;2024-01-06T01:17:58;4.50;99.90
16625;DHT22;8426;48.496;9.098;2024-01-06T01:23:21;4.50;99.90
16625;DHT22;8426;48.496;9.098;2024-01-06T01:28:53;4.40;99.90
16625;DHT22;8426;48.496;9.098;2024-01-06T01:34:24;4.40;99.90
16625;DHT22;8426;48.496;9.098;2024-01-06T01:39:40;4.30;99.90
16625;DHT22;8426;48.496;9.098;2024-01-06T01:44:45;4.20;99.90
16625;DHT22;8426;48.496;9.098;2024-01-06T01:49:56;4.20;99.90
16625;DHT22;8426;48.496;9.098;2024-01-06T01:55:07;4.10;99.90
16625;DHT22;8426;48.496;9.098;2024-01-06T02:00:19;4.10;99.90
16625;DHT22;8426;48.496;9.098;2024-01-06T02:05:32;4.10;99.90
16625;DHT22;8426;48.496;9.098;2024-01-06T02:10:56;4.10;99.90
16625;DHT22;8426;48.496;9.098;2024-01-06T02:16:25;4.10;99.90
16625;DHT22;8426;48.496;9.098;2024-01-06T02:21:52;4.10;99.90
16625;DHT22;8426;48.496;9.098;2024-01-06T02:26:59;4.10;99.90
16625;DHT22;8426;48.496;9.098;2024-01-06T02:32:04;4.20;99.90
16625;DHT22;8426;48.496;9.098;2024-01-06T02:37:13;4.20;99.90
16625;DHT22;8426;48.496;9.098;2024-01-06T02:42:19;4.30;99.90
16625;DHT22;8426;48.496;9.098;2024-01-06T02:47:25;4.40;99.90
16625;DHT22;8426;48.496;9.098;2024-01-06T02:52:55;4.40;99.90
16625;DHT22;8426;48.496;9.098;2024-01-06T02:58:10;4.30;99.90
16625;DHT22;8426;48.496;9.098;2024-01-06T03:03:32;4.30;99.90
16625;DHT22;8426;48.496;9.098;2024-01-06T03:08:50;4.30;99.90
16625;DHT22;8426;48.496;9.098;2024-01-06T03:14:03;4.30;99.90
16625;DHT22;8426;48.496;9.098;2024-01-06T03:19:21;4.30;99.90
16625;DHT22;8426;48.496;9.098;2024-01-06T03:24:37;4.30;99.90
16625;DHT22;8426;48.496;9.098;2024-01-06T03:29:47;4.30;99.90
16625;DHT22;8426;48.496;9.098;2024-01-06T03:35:05;4.20;99.90
16625;DHT22;8426;48.496;9.098;2024-01-06T03:40:15;4.20;99.90
16625;DHT22;8426;48.496;9.098;2024-01-06T03:45:37;4.20;99.90
16625;DHT22;8426;48.496;9.098;2024-01-06T03:50:52;4.10;99.90
16625;DHT22;8426;48.496;9.098;2024-01-06T03:56:01;4.00;99.90
16625;DHT22;8426;48.496;9.098;2024-01-06T04:01:10;3.90;99.90
16625;DHT22;8426;48.496;9.098;2024-01-06T04:06:17;3.90;99.90
16625;DHT22;8426;48.496;9.098;2024-01-06T04:11:26;3.80;99.90
16625;DHT22;8426;48.496;9.098;2024-01-06T04:16:44;3.80;99.90
16625;DHT22;8426;48.496;9.098;2024-01-06T04:21:51;3.80;99.90
16625;DHT22;8426;48.496;9.098;2024-01-06T04:27:19;3.70;99.90
16625;DHT22;8426;48.496;9.098;2024-01-06T04:32:29;3.70;99.90
16625;DHT22;8426;48.496;9.098;2024-01-06T04:37:37;3.70;99.90
16625;DHT22;8426;48.496;9.098;2024-01-06T04:43:15;3.70;99.90
16625;DHT22;8426;48.496;9.098;2024-01-06T04:48:24;3.60;99.90
16625;DHT22;8426;48.496;9.098;2024-01-06T04:53:39;3.60;99.90
16625;DHT22;8426;48.496;9.098;2024-01-06T04:58:47;3.60;99.90
16625;DHT22;8426;48.496;9.098;2024-01-06T05:03:59;3.60;99.90
16625;DHT22;8426;48.496;9.098;2024-01-06T05:09:06;3.60;99.90
16625;DHT22;8426;48.496;9.098;2024-01-06T05:14:13;3.60;99.90
16625;DHT22;8426;48.496;9.098;2024-01-06T05:19:20;3.70;99.90
16625;DHT22;8426;48.496;9.098;2024-01-06T05:24:25;3.70;99.90
16625;DHT22;8426;48.496;9.098;2024-01-06T05:29:33;3.70;99.90
16625;DHT22;8426;48.496;9.098;2024-01-06T05:34:48;3.70;99.90
16625;DHT22;8426;48.496;9.098;2024-01-06T05:39:59;3.70;99.90
16625;DHT22;8426;48.496;9.098;2024-01-06T05:45:11;3.70;99.90
16625;DHT22;8426;48.496;9.098;2024-01-06T05:50:20;3.70;99.90
16625;DHT22;8426;48.496;9.098;2024-01-06T05:55:28;3.70;99.90
16625;DHT22;8426;48.496;9.098;2024-01-06T06:00:42;3.70;99.90
16625;DHT22;8426;48.496;9.098;2024-01-06T06:05:51;3.70;99.90
16625;DHT22;8426;48.496;9.098;2024-01-06T06:10:58;3.70;99.90
16625;DHT22;8426;48.496;9.098;2024-01-06T06:16:16;3.70;99.90
16625;DHT22;8426;48.496;9.098;2024-01-06T06:21:22;3.60;99.90
16625;DHT22;8426;48.496;9.098;2024-01-06T06:26:27;3.60;99.90
16625;DHT22;8426;48.496;9.098;2024-01-06T06:31:49;3.60;99.90
16625;DHT22;8426;48.496;9.098;2024-01-06T06:36:54;3.60;99.90
16625;DHT22;8426;48.496;9.098;2024-01-06T06:42:14;3.60;99.90
16625;DHT22;8426;48.496;9.098;2024-01-06T06:47:20;3.60;99.90
16625;DHT22;8426;48.496;9.098;2024-01-06T06:52:23;3.60;99.90
16625;DHT22;8426;48.496;9.098;2024-01-06T06:57:27;3.60;99.90
16625;DHT22;8426;48.496;9.098;2024-01-06T07:02:35;3.60;99.90
16625;DHT22;8426;48.496;9.098;2024-01-06T07:07:39;3.60;99.90
16625;DHT22;8426;48.496;9.098;2024-01-06T07:12:42;3.60;99.90
16625;DHT22;8426;48.496;9.098;2024-01-06T07:17:47;3.60;99.90
16625;DHT22;8426;48.496;9.098;2024-01-06T07:22:51;3.60;99.90
16625;DHT22;8426;48.496;9.098;2024-01-06T07:27:56;3.60;99.90
16625;DHT22;8426;48.496;9.098;2024-01-06T07:33:02;3.60;99.90
16625;DHT22;8426;48.496;9.098;2024-01-06T07:38:07;3.60;99.90
16625;DHT22;8426;48.496;9.098;2024-01-06T07:43:11;3.60;99.90
16625;DHT22;8426;48.496;9.098;2024-01-06T07:48:16;3.50;99.90
16625;DHT22;8426;48.496;9.098;2024-01-06T07:53:20;3.50;99.90
16625;DHT22;8426;48.496;9.098;2024-01-06T07:58:25;3.60;99.90
16625;DHT22;8426;48.496;9.098;2024-01-06T08:03:31;3.60;99.90
16625;DHT22;8426;48.496;9.098;2024-01-06T08:08:41;3.70;99.90
16625;DHT22;8426;48.496;9.098;2024-01-06T08:13:45;3.90;99.90
16625;DHT22;8426;48.496;9.098;2024-01-06T08:18:50;4.00;99.90
16625;DHT22;8426;48.496;9.098;2024-01-06T08:23:53;4.10;99.90
16625;DHT22;8426;48.496;9.098;2024-01-06T08:28:58;4.20;99.90
16625;DHT22;8426;48.496;9.098;2024-01-06T08:34:03;4.20;99.90
16625;DHT22;8426;48.496;9.098;2024-01-06T08:39:08;4.30;99.90
16625;DHT22;8426;48.496;9.098;2024-01-06T08:44:12;4.40;99.90
16625;DHT22;8426;48.496;9.098;2024-01-06T08:49:17;4.50;99.90
16625;DHT22;8426;48.496;9.098;2024-01-06T08:54:21;4.60;99.90
16625;DHT22;8426;48.496;9.098;2024-01-06T08:59:25;4.80;99.90
16625;DHT22;8426;48.496;9.098;2024-01-06T09:04:30;4.90;99.90
16625;DHT22;8426;48.496;9.098;2024-01-06T09:09:35;5.10;99.90
16625;DHT22;8426;48.496;9.098;2024-01-06T09:14:38;5.40;99.90
16625;DHT22;8426;48.496;9.098;2024-01-06T09:19:44;5.70;99.90
16625;DHT22;8426;48.496;9.098;2024-01-06T09:24:48;5.90;99.90
16625;DHT22;8426;48.496;9.098;2024-01-06T09:29:53;5.90;99.90
16625;DHT22;8426;48.496;9.098;2024-01-06T09:34:58;6.00;99.90
16625;DHT22;8426;48.496;9.098;2024-01-06T09:40:02;6.00;99.90
16625;DHT22;8426;48.496;9.098;2024-01-06T09:45:07;6.00;99.90
16625;DHT22;8426;48.496;9.098;2024-01-06T09:50:14;6.00;99.90
16625;DHT22;8426;48.496;9.098;2024-01-06T09:55:23;6.10;99.90
16625;DHT22;8426;48.496;9.098;2024-01-06T10:00:27;6.00;99.90
16625;DHT22;8426;48.496;9.098;2024-01-06T10:05:34;6.00;99.90
16625;DHT22;8426;48.496;9.098;2024-01-06T10:10:38;6.00;99.90
16625;DHT22;8426;48.496;9.098;2024-01-06T10:21:16;6.00;99.90
16625;DHT22;8426;48.496;9.098;2024-01-06T10:46:02;5.80;99.90
16625;DHT22;8426;48.496;9.098;2024-01-06T10:51:07;5.90;99.90
16625;DHT22;8426;48.496;9.098;2024-01-06T10:56:16;6.00;99.90
16625;DHT22;8426;48.496;9.098;2024-01-06T11:01:21;6.00;99.90
16625;DHT22;8426;48.496;9.098;2024-01-06T11:06:32;6.10;99.90
16625;DHT22;8426;48.496;9.098;2024-01-06T11:11:38;6.10;99.90
16625;DHT22;8426;48.496;9.098;2024-01-06T11:16:44;6.10;99.90
16625;DHT22;8426;48.496;9.098;2024-01-06T11:21:48;6.20;99.90
16625;DHT22;8426;48.496;9.098;2024-01-06T11:26:53;6.20;99.90
16625;DHT22;8426;48.496;9.098;2024-01-06T11:32:20;6.40;99.90
16625;DHT22;8426;48.496;9.098;2024-01-06T11:37:36;6.40;99.90
16625;DHT22;8426;48.496;9.098;2024-01-06T11:42:41;6.50;99.90
16625;DHT22;8426;48.496;9.098;2024-01-06T11:47:48;6.60;99.90
16625;DHT22;8426;48.496;9.098;2024-01-06T11:52:52;6.60;99.90
16625;DHT22;8426;48.496;9.098;2024-01-06T11:57:55;6.70;99.90
16625;DHT22;8426;48.496;9.098;2024-01-06T12:03:01;6.70;99.90
16625;DHT22;8426;48.496;9.098;2024-01-06T12:08:06;6.60;99.90
16625;DHT22;8426;48.496;9.098;2024-01-06T12:13:11;6.70;99.90
16625;DHT22;8426;48.496;9.098;2024-01-06T12:18:21;6.70;99.90
16625;DHT22;8426;48.496;9.098;2024-01-06T12:23:27;6.70;99.90
16625;DHT22;8426;48.496;9.098;2024-01-06T12:28:35;6.60;99.90
16625;DHT22;8426;48.496;9.098;2024-01-06T12:33:47;6.70;99.90
16625;DHT22;8426;48.496;9.098;2024-01-06T12:38:51;6.80;99.90
16625;DHT22;8426;48.496;9.098;2024-01-06T12:43:54;6.80;99.90
16625;DHT22;8426;48.496;9.098;2024-01-06T12:49:01;6.60;99.90
16625;DHT22;8426;48.496;9.098;2024-01-06T12:54:05;6.60;99.90
16625;DHT22;8426;48.496;9.098;2024-01-06T12:59:09;6.80;99.90
16625;DHT22;8426;48.496;9.098;2024-01-06T13:04:15;6.80;99.90
16625;DHT22;8426;48.496;9.098;2024-01-06T13:09:19;6.80;99.90
16625;DHT22;8426;48.496;9.098;2024-01-06T13:14:26;6.60;99.90
16625;DHT22;8426;48.496;9.098;2024-01-06T13:19:31;6.40;99.90
16625;DHT22;8426;48.496;9.098;2024-01-06T13:24:35;6.40;99.90
16625;DHT22;8426;48.496;9.098;2024-01-06T13:29:40;6.30;99.90
16625;DHT22;8426;48.496;9.098;2024-01-06T13:34:46;6.30;99.90
16625;DHT22;8426;48.496;9.098;2024-01-06T13:39:50;6.20;99.90
16625;DHT22;8426;48.496;9.098;2024-01-06T13:44:53;6.10;99.90
16625;DHT22;8426;48.496;9.098;2024-01-06T13:49:58;6.00;99.90
16625;DHT22;8426;48.496;9.098;2024-01-06T13:55:03;5.80;99.90
16625;DHT22;8426;48.496;9.098;2024-01-06T14:00:07;5.70;99.90
16625;DHT22;8426;48.496;9.098;2024-01-06T14:05:13;5.60;99.90
16625;DHT22;8426;48.496;9.098;2024-01-06T14:10:18;5.50;99.90
16625;DHT22;8426;48.496;9.098;2024-01-06T14:15:21;5.50;99.90
16625;DHT22;8426;48.496;9.098;2024-01-06T14:20:27;5.40;99.90
16625;DHT22;8426;48.496;9.098;2024-01-06T14:25:32;5.30;99.90
16625;DHT22;8426;48.496;9.098;2024-01-06T14:30:35;5.30;99.90
16625;DHT22;8426;48.496;9.098;2024-01-06T14:35:41;5.20;99.90
16625;DHT22;8426;48.496;9.098;2024-01-06T14:40:47;5.10;99.90
16625;DHT22;8426;48.496;9.098;2024-01-06T14:45:50;5.10;99.90
16625;DHT22;8426;48.496;9.098;2024-01-06T14:50:56;5.10;99.90
16625;DHT22;8426;48.496;9.098;2024-01-06T14:56:00;5.10;99.90
16625;DHT22;8426;48.496;9.098;2024-01-06T15:01:08;5.10;99.90
16625;DHT22;8426;48.496;9.098;2024-01-06T15:06:14;5.10;99.90
16625;DHT22;8426;48.496;9.098;2024-01-06T15:11:19;5.00;99.90
16625;DHT22;8426;48.496;9.098;2024-01-06T15:16:23;5.00;99.90
16625;DHT22;8426;48.496;9.098;2024-01-06T15:21:29;5.00;99.90
16625;DHT22;8426;48.496;9.098;2024-01-06T15:26:36;4.90;99.90
16625;DHT22;8426;48.496;9.098;2024-01-06T15:31:39;4.90;99.90
16625;DHT22;8426;48.496;9.098;2024-01-06T15:36:45;4.80;99.90
16625;DHT22;8426;48.496;9.098;2024-01-06T15:41:50;4.80;99.90
16625;DHT22;8426;48.496;9.098;2024-01-06T15:46:53;4.80;99.90
16625;DHT22;8426;48.496;9.098;2024-01-06T15:51:58;4.70;99.90
16625;DHT22;8426;48.496;9.098;2024-01-06T15:57:03;4.70;99.90
16625;DHT22;8426;48.496;9.098;2024-01-06T16:02:07;4.70;99.90
16625;DHT22;8426;48.496;9.098;2024-01-06T16:07:12;4.60;99.90
16625;DHT22;8426;48.496;9.098;2024-01-06T16:12:17;4.50;99.90
16625;DHT22;8426;48.496;9.098;2024-01-06T16:17:21;4.50;99.90
16625;DHT22;8426;48.496;9.098;2024-01-06T16:22:26;4.50;99.90
16625;DHT22;8426;48.496;9.098;2024-01-06T16:27:31;4.50;99.90
16625;DHT22;8426;48.496;9.098;2024-01-06T16:32:34;4.40;99.90
16625;DHT22;8426;48.496;9.098;2024-01-06T16:37:41;4.50;99.90
16625;DHT22;8426;48.496;9.098;2024-01-06T16:42:45;4.40;99.90
16625;DHT22;8426;48.496;9.098;2024-01-06T16:47:49;4.40;99.90
16625;DHT22;8426;48.496;9.098;2024-01-06T16:52:55;4.40;99.90
16625;DHT22;8426;48.496;9.098;2024-01-06T16:58:00;4.30;99.90
16625;DHT22;8426;48.496;9.098;2024-01-06T17:03:05;4.30;99.90
16625;DHT22;8426;48.496;9.098;2024-01-06T17:08:12;4.30;99.90
16625;DHT22;8426;48.496;9.098;2024-01-06T17:13:16;4.30;99.90
16625;DHT22;8426;48.496;9.098;2024-01-06T17:18:21;4.30;99.90
16625;DHT22;8426;48.496;9.098;2024-01-06T17:23:27;4.40;99.90
16625;DHT22;8426;48.496;9.098;2024-01-06T17:28:31;4.30;99.90
16625;DHT22;8426;48.496;9.098;2024-01-06T17:33:36;4.30;99.90
16625;DHT22;8426;48.496;9.098;2024-01-06T17:38:41;4.30;99.90
16625;DHT22;8426;48.496;9.098;2024-01-06T17:43:44;4.30;99.90
16625;DHT22;8426;48.496;9.098;2024-01-06T17:48:49;4.30;99.90
16625;DHT22;8426;48.496;9.098;2024-01-06T17:53:55;4.20;99.90
16625;DHT22;8426;48.496;9.098;2024-01-06T17:58:59;4.20;99.90
16625;DHT22;8426;48.496;9.098;2024-01-06T18:04:04;4.20;99.90
16625;DHT22;8426;48.496;9.098;2024-01-06T18:09:11;4.20;99.90
16625;DHT22;8426;48.496;9.098;2024-01-06T18:14:21;4.20;99.90
16625;DHT22;8426;48.496;9.098;2024-01-06T18:19:26;4.20;99.90
16625;DHT22;8426;48.496;9.098;2024-01-06T18:24:31;4.20;99.90
16625;DHT22;8426;48.496;9.098;2024-01-06T18:29:35;4.20;99.90
16625;DHT22;8426;48.496;9.098;2024-01-06T18:34:39;4.10;99.90
16625;DHT22;8426;48.496;9.098;2024-01-06T18:39:46;4.10;99.90
16625;DHT22;8426;48.496;9.098;2024-01-06T18:44:49;4.10;99.90
16625;DHT22;8426;48.496;9.098;2024-01-06T18:49:53;4.00;99.90
16625;DHT22;8426;48.496;9.098;2024-01-06T18:55:01;4.00;99.90
16625;DHT22;8426;48.496;9.098;2024-01-06T19:00:06;4.00;99.90
16625;DHT22;8426;48.496;9.098;2024-01-06T19:05:10;4.00;99.90
16625;DHT22;8426;48.496;9.098;2024-01-06T19:10:16;4.00;99.90
16625;DHT22;8426;48.496;9.098;2024-01-06T19:15:20;4.00;99.90
16625;DHT22;8426;48.496;9.098;2024-01-06T19:20:24;4.00;99.90
16625;DHT22;8426;48.496;9.098;2024-01-06T19:25:31;4.00;99.90
16625;DHT22;8426;48.496;9.098;2024-01-06T19:30:35;4.00;99.90
16625;DHT22;8426;48.496;9.098;2024-01-06T19:35:39;4.00;99.90
16625;DHT22;8426;48.496;9.098;2024-01-06T19:40:44;4.00;99.90
16625;DHT22;8426;48.496;9.098;2024-01-06T19:45:51;4.00;99.90
16625;DHT22;8426;48.496;9.098;2024-01-06T19:50:55;4.00;99.90
16625;DHT22;8426;48.496;9.098;2024-01-06T19:56:00;3.90;99.90
16625;DHT22;8426;48.496;9.098;2024-01-06T20:01:06;3.90;99.90
16625;DHT22;8426;48.496;9.098;2024-01-06T20:06:11;3.90;99.90
16625;DHT22;8426;48.496;9.098;2024-01-06T20:11:16;3.90;99.90
16625;DHT22;8426;48.496;9.098;2024-01-06T20:16:20;3.90;99.90
16625;DHT22;8426;48.496;9.098;2024-01-06T20:21:25;3.90;99.90
16625;DHT22;8426;48.496;9.098;2024-01-06T20:26:30;3.90;99.90
16625;DHT22;8426;48.496;9.098;2024-01-06T20:31:34;3.90;99.90
16625;DHT22;8426;48.496;9.098;2024-01-06T20:36:37;3.90;99.90
16625;DHT22;8426;48.496;9.098;2024-01-06T20:41:45;3.90;99.90
16625;DHT22;8426;48.496;9.098;2024-01-06T20:46:48;3.90;99.90
16625;DHT22;8426;48.496;9.098;2024-01-06T20:51:53;3.90;99.90
16625;DHT22;8426;48.496;9.098;2024-01-06T20:56:59;3.90;99.90
16625;DHT22;8426;48.496;9.098;2024-01-06T21:02:03;3.90;99.90
16625;DHT22;8426;48.496;9.098;2024-01-06T21:07:07;3.90;99.90
16625;DHT22;8426;48.496;9.098;2024-01-06T21:12:13;3.90;99.90
16625;DHT22;8426;48.496;9.098;2024-01-06T21:17:17;3.90;99.90
16625;DHT22;8426;48.496;9.098;2024-01-06T21:22:20;3.90;99.90
16625;DHT22;8426;48.496;9.098;2024-01-06T21:27:26;3.90;99.90
16625;DHT22;8426;48.496;9.098;2024-01-06T21:32:30;3.90;99.90
16625;DHT22;8426;48.496;9.098;2024-01-06T21:37:34;3.80;99.90
16625;DHT22;8426;48.496;9.098;2024-01-06T21:42:40;3.80;99.90
16625;DHT22;8426;48.496;9.098;2024-01-06T21:47:43;3.70;99.90
16625;DHT22;8426;48.496;9.098;2024-01-06T21:52:48;3.60;99.90
16625;DHT22;8426;48.496;9.098;2024-01-06T21:57:54;3.60;99.90
16625;DHT22;8426;48.496;9.098;2024-01-06T22:02:58;3.50;99.90
16625;DHT22;8426;48.496;9.098;2024-01-06T22:08:03;3.50;99.90
16625;DHT22;8426;48.496;9.098;2024-01-06T22:13:09;3.40;99.90
16625;DHT22;8426;48.496;9.098;2024-01-06T22:18:16;3.30;99.90
16625;DHT22;8426;48.496;9.098;2024-01-06T22:23:21;3.30;99.90
16625;DHT22;8426;48.496;9.098;2024-01-06T22:28:26;3.30;99.90
16625;DHT22;8426;48.496;9.098;2024-01-06T22:33:30;3.30;99.90
16625;DHT22;8426;48.496;9.098;2024-01-06T22:38:33;3.30;99.90
16625;DHT22;8426;48.496;9.098;2024-01-06T22:43:55;3.20;99.90
16625;DHT22;8426;48.496;9.098;2024-01-06T22:48:58;3.30;99.90
16625;DHT22;8426;48.496;9.098;2024-01-06T22:54:03;3.40;99.90
16625;DHT22;8426;48.496;9.098;2024-01-06T22:59:08;3.50;99.90
16625;DHT22;8426;48.496;9.098;2024-01-06T23:04:12;3.50;99.90
16625;DHT22;8426;48.496;9.098;2024-01-06T23:09:18;3.60;99.90
16625;DHT22;8426;48.496;9.098;2024-01-06T23:14:24;3.60;99.90
16625;DHT22;8426;48.496;9.098;2024-01-06T23:19:28;3.60;99.90
16625;DHT22;8426;48.496;9.098;2024-01-06T23:24:33;3.60;99.90
16625;DHT22;8426;48.496;9.098;2024-01-06T23:29:40;3.50;99.90
16625;DHT22;8426;48.496;9.098;2024-01-06T23:34:43;3.50;99.90
16625;DHT22;8426;48.496;9.098;2024-01-06T23:39:47;3.50;99.90
16625;DHT22;8426;48.496;9.098;2024-01-06T23:44:52;3.50;99.90
16625;DHT22;8426;48.496;9.098;2024-01-06T23:49:56;3.50;99.90
16625;DHT22;8426;48.496;9.098;2024-01-06T23:55:00;3.50;99.90
